Time;durP1;ratioP1;P1;durP2;ratioP2;P2;SDS_P1;SDS_P2;PMS_P1;PMS_P2;Temp;Humidity;BMP_temperature;BMP_pressure;BME280_temperature;BME280_humidity;BME280_pressure;Samples;Min_cycle;Max_cycle;Signal;HPM_P1;HPM_P2
2021/04/21 00:00:07;;;;;;;;;;;;;;;17.06;41.63;101806.88;5068504;28;19944;-88
2021/04/21 00:02:33;;;;;;;;;;;;;;;17.34;40.96;101802.47;5049637;28;19948;-88
2021/04/21 00:04:59;;;;;;;;;;;;;;;17.18;41.09;101802.50;5068071;28;20390;-86
2021/04/21 00:07:24;;;;;;;;;;;;;;;17.25;40.98;101813.97;5049585;28;19917;-92
2021/04/21 00:09:53;;;;;;;;;;;;;;;17.37;40.37;101802.28;5049430;28;20238;-85
2021/04/21 00:12:21;;;;;;;;;;;;;;;17.56;39.64;101802.03;5034544;28;19921;-87
2021/04/21 00:14:47;;;;;;;;;;;;;;;17.66;39.64;101796.84;5029125;28;19925;-90
2021/04/21 00:17:12;;;;;;;;;;;;;;;17.25;40.13;101809.38;5027497;28;19925;-88
2021/04/21 00:19:40;;;;;;;;;;;;;;;17.30;40.20;101809.97;5027715;28;20001;-87
2021/04/21 00:22:06;;;;;;;;;;;;;;;17.15;40.80;101803.59;5029150;28;19918;-86
2021/04/21 00:24:32;;;;;;;;;;;;;;;17.21;40.31;101807.81;5026872;28;19956;-85
2021/04/21 00:26:58;;;;;;;;;;;;;;;17.11;40.89;101806.59;5028063;28;19918;-87
2021/04/21 00:29:24;;;;;;;;;;;;;;;16.99;41.25;101802.72;5027135;28;19921;-87
2021/04/21 00:31:50;;;;;;;;;;;;;;;16.84;41.10;101805.34;5027039;28;19921;-88
2021/04/21 00:34:18;;;;;;;;;;;;;;;16.72;41.52;101803.34;5028177;28;19914;-91
2021/04/21 00:36:47;;;;;;;;;;;;;;;16.98;40.95;101807.34;5025652;28;19968;-90
2021/04/21 00:39:12;;;;;;;;;;;;;;;17.36;39.89;101800.50;5026662;28;19908;-88
2021/04/21 00:41:56;;;;;;;;;;;;;;;17.40;40.01;101806.69;5026142;28;20383;-88
2021/04/21 00:44:43;;;;;;;;;;;;;;;17.32;40.00;101804.41;5027790;28;19929;-87
2021/04/21 00:47:28;;;;;;;;;;;;;;;17.11;40.48;101812.06;5026588;28;19940;-86
2021/04/21 00:49:56;;;;;;;;;;;;;;;17.30;39.82;101796.31;5025511;28;20383;-87
2021/04/21 00:52:33;;;;;;;;;;;;;;;17.23;39.86;101797.66;5027635;28;19918;-87
2021/04/21 00:55:01;;;;;;;;;;;;;;;17.46;39.44;101795.38;5026767;28;19973;-86
2021/04/21 00:57:34;;;;;;;;;;;;;;;17.03;40.09;101792.50;5026531;28;19917;-89
2021/04/21 01:00:07;;;;;;;;;;;;;;;17.06;40.07;101795.94;5027999;28;20016;-86
2021/04/21 01:02:43;;;;;;;;;;;;;;;16.57;41.15;101791.47;5026548;28;19925;-86
2021/04/21 01:05:13;;;;;;;;;;;;;;;16.51;41.79;101799.13;5026757;28;19917;-88
2021/04/21 01:07:40;;;;;;;;;;;;;;;16.59;41.78;101794.09;5026563;28;19917;-86
2021/04/21 01:10:06;;;;;;;;;;;;;;;16.53;41.85;101798.09;5010892;28;19945;-85
2021/04/21 01:12:34;;;;;;;;;;;;;;;17.03;40.46;101789.75;5029254;28;19932;-85
2021/04/21 01:15:01;;;;;;;;;;;;;;;17.04;40.25;101786.94;5031880;28;19925;-84
2021/04/21 01:17:27;;;;;;;;;;;;;;;17.07;40.12;101791.34;5029750;28;19921;-84
2021/04/21 01:20:05;;;;;;;;;;;;;;;16.79;40.68;101795.69;5030372;28;19924;-87
2021/04/21 01:22:42;;;;;;;;;;;;;;;16.30;42.05;101788.47;5029296;28;19901;-85
2021/04/21 01:25:10;;;;;;;;;;;;;;;16.82;40.62;101795.50;5029295;28;19925;-86
2021/04/21 01:27:44;;;;;;;;;;;;;;;16.83;40.61;101791.78;5028201;28;19933;-88
2021/04/21 01:30:10;;;;;;;;;;;;;;;17.02;40.00;101788.00;5026847;28;19924;-86
2021/04/21 01:32:37;;;;;;;;;;;;;;;16.38;41.57;101790.75;5024922;28;19918;-85
2021/04/21 01:35:03;;;;;;;;;;;;;;;16.49;41.37;101796.50;5025750;28;19921;-87
2021/04/21 01:37:31;;;;;;;;;;;;;;;16.70;40.57;101793.47;5027937;28;19977;-86
2021/04/21 01:40:03;;;;;;;;;;;;;;;16.68;40.55;101795.41;5027297;28;19917;-89
2021/04/21 01:42:31;;;;;;;;;;;;;;;16.77;40.26;101792.16;5027099;28;19913;-89
2021/04/21 01:44:58;;;;;;;;;;;;;;;16.74;40.29;101790.50;5025282;28;20412;-88
2021/04/21 01:47:24;;;;;;;;;;;;;;;16.24;41.51;101786.94;5025575;28;19901;-89
2021/04/21 01:49:58;;;;;;;;;;;;;;;16.69;40.58;101800.78;5027629;28;19918;-90
2021/04/21 01:52:42;;;;;;;;;;;;;;;16.03;41.87;101793.63;5027211;28;19921;-86
2021/04/21 01:55:14;;;;;;;;;;;;;;;16.30;40.69;101789.34;5025180;28;19921;-87
2021/04/21 01:57:49;;;;;;;;;;;;;;;16.40;40.59;101791.56;5025057;28;20024;-87
2021/04/21 02:00:27;;;;;;;;;;;;;;;16.67;39.92;101791.81;5025974;28;20021;-84
2021/04/21 02:03:03;;;;;;;;;;;;;;;16.45;40.20;101797.63;5027412;28;19918;-84
2021/04/21 02:05:31;;;;;;;;;;;;;;;15.69;41.85;101807.22;5025907;28;20020;-86
2021/04/21 02:08:05;;;;;;;;;;;;;;;16.12;40.76;101807.66;5027183;28;19924;-84
2021/04/21 02:10:35;;;;;;;;;;;;;;;16.23;40.28;101803.41;5024310;28;19917;-86
2021/04/21 02:13:12;;;;;;;;;;;;;;;16.04;40.09;101798.13;5025025;28;19945;-88
2021/04/21 02:15:59;;;;;;;;;;;;;;;16.39;39.43;101797.97;5027358;28;19918;-84
2021/04/21 02:18:27;;;;;;;;;;;;;;;16.17;39.38;101804.66;5025036;28;20016;-84
2021/04/21 02:20:52;;;;;;;;;;;;;;;16.26;39.14;101798.69;5025470;28;19921;-87
2021/04/21 02:23:27;;;;;;;;;;;;;;;15.95;39.55;101800.38;5025953;28;19987;-88
2021/04/21 02:26:01;;;;;;;;;;;;;;;16.08;39.50;101805.19;5024534;28;19972;-84
2021/04/21 02:28:46;;;;;;;;;;;;;;;16.13;39.71;101803.94;5024713;28;19924;-87
2021/04/21 02:31:35;;;;;;;;;;;;;;;16.59;38.64;101800.47;5024864;28;19978;-84
2021/04/21 02:34:19;;;;;;;;;;;;;;;16.97;37.77;101805.56;5033268;28;19963;-84
2021/04/21 02:37:03;;;;;;;;;;;;;;;17.00;37.93;101805.38;5032838;28;19932;-84
2021/04/21 02:39:49;;;;;;;;;;;;;;;16.79;38.51;101799.28;5033361;28;19923;-83
2021/04/21 02:42:26;;;;;;;;;;;;;;;16.72;38.57;101810.69;5031057;28;19918;-83
2021/04/21 02:45:27;;;;;;;;;;;;;;;16.66;38.79;101807.31;5031706;28;19981;-84
2021/04/21 02:48:15;;;;;;;;;;;;;;;16.38;39.50;101809.88;4951418;29;19977;-87
2021/04/21 02:50:47;;;;;;;;;;;;;;;16.44;39.71;101804.06;5025246;28;19980;-88
2021/04/21 02:53:25;;;;;;;;;;;;;;;16.46;39.85;101802.13;5030573;28;19925;-87
2021/04/21 02:55:54;;;;;;;;;;;;;;;16.79;39.18;101807.50;5029621;28;19926;-88
2021/04/21 02:58:24;;;;;;;;;;;;;;;16.59;39.70;101803.19;5029135;28;19929;-87
2021/04/21 03:00:52;;;;;;;;;;;;;;;16.56;39.59;101806.09;5028458;28;19918;-86
2021/04/21 03:03:56;;;;;;;;;;;;;;;16.33;40.16;101798.34;5030336;28;19988;-89
2021/04/21 03:06:24;;;;;;;;;;;;;;;16.48;40.01;101808.38;4950164;29;19946;-89
2021/04/21 03:08:55;;;;;;;;;;;;;;;16.44;39.95;101806.78;4934921;29;19934;-86
2021/04/21 03:11:25;;;;;;;;;;;;;;;16.43;40.22;101810.50;4998089;28;19920;-85
2021/04/21 03:14:06;;;;;;;;;;;;;;;16.44;40.33;101809.50;5046114;28;19904;-86
2021/04/21 03:16:36;;;;;;;;;;;;;;;16.37;40.54;101808.13;5068088;28;19909;-86
2021/04/21 03:19:05;;;;;;;;;;;;;;;16.21;40.86;101811.69;5069740;28;19940;-86
2021/04/21 03:21:35;;;;;;;;;;;;;;;16.39;40.17;101807.03;5052752;28;19938;-84
2021/04/21 03:24:22;;;;;;;;;;;;;;;16.07;40.92;101807.00;5051698;28;19978;-86
2021/04/21 03:26:50;;;;;;;;;;;;;;;16.54;39.85;101801.69;5051114;28;19916;-86
2021/04/21 03:29:19;;;;;;;;;;;;;;;16.40;39.87;101799.75;5069586;28;19988;-87
2021/04/21 03:31:46;;;;;;;;;;;;;;;16.20;40.36;101809.94;5052143;28;19927;-85
2021/04/21 03:34:14;;;;;;;;;;;;;;;16.09;40.73;101807.81;5053121;28;19924;-86
2021/04/21 03:36:41;;;;;;;;;;;;;;;16.04;41.33;101806.31;5053195;28;20382;-84
2021/04/21 03:39:06;;;;;;;;;;;;;;;16.10;40.80;101801.38;5052805;28;19988;-88
2021/04/21 03:41:32;;;;;;;;;;;;;;;16.18;40.60;101806.41;5050373;28;19917;-85
2021/04/21 03:44:00;;;;;;;;;;;;;;;16.33;40.38;101803.78;5049798;28;19952;-88
2021/04/21 03:46:26;;;;;;;;;;;;;;;16.23;40.35;101801.59;5050012;28;19956;-86
2021/04/21 03:48:52;;;;;;;;;;;;;;;16.09;40.85;101806.94;5052041;28;20389;-85
2021/04/21 03:51:17;;;;;;;;;;;;;;;16.32;40.35;101800.19;5051698;28;19917;-87
2021/04/21 03:53:43;;;;;;;;;;;;;;;15.94;41.24;101800.47;5068422;28;19927;-86
2021/04/21 03:56:11;;;;;;;;;;;;;;;15.92;41.07;101805.13;5051544;28;20325;-85
2021/04/21 03:58:37;;;;;;;;;;;;;;;15.83;41.41;101803.78;5051559;28;19980;-87
2021/04/21 04:01:03;;;;;;;;;;;;;;;15.90;41.14;101802.50;5051130;28;19905;-86
2021/04/21 04:03:30;;;;;;;;;;;;;;;15.82;41.39;101801.13;5050710;28;19925;-90
2021/04/21 04:06:02;;;;;;;;;;;;;;;15.83;41.56;101801.06;5068655;28;19927;-88
2021/04/21 04:08:33;;;;;;;;;;;;;;;15.81;41.70;101802.13;5050729;28;19916;-84
2021/04/21 04:11:00;;;;;;;;;;;;;;;15.89;41.04;101805.31;5051967;28;19921;-85
2021/04/21 04:13:29;;;;;;;;;;;;;;;16.10;40.51;101806.84;5052451;28;19923;-87
2021/04/21 04:15:56;;;;;;;;;;;;;;;15.95;40.92;101811.28;5052714;28;19921;-87
2021/04/21 04:18:23;;;;;;;;;;;;;;;15.93;40.82;101809.63;5052909;28;20024;-85
2021/04/21 04:20:50;;;;;;;;;;;;;;;16.06;40.54;101812.56;5051743;28;19968;-88
2021/04/21 04:23:17;;;;;;;;;;;;;;;16.14;40.38;101804.84;5052155;28;19924;-85
2021/04/21 04:26:03;;;;;;;;;;;;;;;16.03;40.82;101810.00;5052854;28;19924;-83
2021/04/21 04:28:30;;;;;;;;;;;;;;;15.73;41.49;101819.75;5051271;28;19924;-82
2021/04/21 04:30:57;;;;;;;;;;;;;;;15.67;41.61;101814.63;5070488;28;19916;-84
2021/04/21 04:33:24;;;;;;;;;;;;;;;15.69;41.51;101825.47;5050558;28;19940;-87
2021/04/21 04:35:49;;;;;;;;;;;;;;;15.78;41.21;101822.25;5068506;28;19924;-89
2021/04/21 04:38:15;;;;;;;;;;;;;;;15.77;41.00;101825.91;5052015;28;20360;-86
2021/04/21 04:40:40;;;;;;;;;;;;;;;16.02;40.32;101821.88;5049772;28;19978;-90
2021/04/21 04:43:07;;;;;;;;;;;;;;;15.94;40.53;101823.19;5049555;28;19932;-84
2021/04/21 04:45:33;;;;;;;;;;;;;;;15.82;40.94;101826.59;5049063;28;19917;-89
2021/04/21 04:48:03;;;;;;;;;;;;;;;15.89;41.02;101828.00;5048803;28;20346;-88
2021/04/21 04:50:31;;;;;;;;;;;;;;;15.75;41.02;101825.13;5044075;28;19916;-86
2021/04/21 04:52:57;;;;;;;;;;;;;;;15.73;41.89;101830.66;5045118;28;19934;-86
2021/04/21 04:55:23;;;;;;;;;;;;;;;15.83;41.71;101831.06;5051635;28;19975;-88
2021/04/21 04:57:50;;;;;;;;;;;;;;;15.85;41.51;101831.88;5035910;28;19921;-85
2021/04/21 05:00:20;;;;;;;;;;;;;;;15.93;41.65;101835.06;5029964;28;19905;-87
2021/04/21 05:03:04;;;;;;;;;;;;;;;15.99;41.62;101838.41;5026318;28;19921;-89
2021/04/21 05:05:32;;;;;;;;;;;;;;;15.65;42.51;101842.94;5025472;28;19925;-87
2021/04/21 05:08:04;;;;;;;;;;;;;;;15.93;41.94;101839.66;5059225;28;19921;-88
2021/04/21 05:10:31;;;;;;;;;;;;;;;15.87;42.19;101840.88;5060388;28;19928;-86
2021/04/21 05:13:04;;;;;;;;;;;;;;;15.88;42.46;101848.09;5041074;28;20012;-86
2021/04/21 05:15:32;;;;;;;;;;;;;;;15.95;42.17;101854.97;5052405;28;19921;-88
2021/04/21 05:18:08;;;;;;;;;;;;;;;16.09;41.72;101851.50;5031582;28;19955;-88
2021/04/21 05:21:04;;;;;;;;;;;;;;;15.94;42.41;101852.31;5057550;28;19921;-89
2021/04/21 05:23:48;;;;;;;;;;;;;;;16.09;42.42;101858.78;5047679;28;19971;-90
2021/04/21 05:26:32;;;;;;;;;;;;;;;16.00;42.75;101854.72;5065860;28;19928;-88
2021/04/21 05:29:17;;;;;;;;;;;;;;;16.30;41.93;101864.91;5052408;28;19924;-88
2021/04/21 05:32:02;;;;;;;;;;;;;;;16.37;42.13;101865.47;5046981;28;19917;-93
2021/04/21 05:34:45;;;;;;;;;;;;;;;16.07;42.88;101866.19;5047058;28;19921;-87
2021/04/21 05:37:30;;;;;;;;;;;;;;;16.36;42.14;101864.56;5051014;28;19978;-88
2021/04/21 05:40:16;;;;;;;;;;;;;;;16.51;41.90;101876.50;5048856;28;20004;-89
2021/04/21 05:42:53;;;;;;;;;;;;;;;16.55;41.79;101869.03;5034860;28;19940;-88
2021/04/21 05:45:18;;;;;;;;;;;;;;;16.44;41.98;101873.22;5023204;28;20012;-89
2021/04/21 05:48:04;;;;;;;;;;;;;;;16.48;42.27;101882.13;5025226;28;20010;-90
2021/04/21 05:50:39;;;;;;;;;;;;;;;16.01;43.97;101880.19;5023598;28;20369;-91
2021/04/21 05:53:22;;;;;;;;;;;;;;;16.16;43.49;101881.19;5022005;28;20030;-86
2021/04/21 05:56:03;;;;;;;;;;;;;;;16.33;43.32;101883.00;5022829;28;19917;-88
2021/04/21 05:58:40;;;;;;;;;;;;;;;16.44;43.21;101883.25;5023286;28;19917;-88
2021/04/21 06:01:21;;;;;;;;;;;;;;;16.34;43.68;101882.03;5022252;28;19943;-85
2021/04/21 06:03:49;;;;;;;;;;;;;;;16.78;42.52;101881.38;5023927;28;19924;-87
2021/04/21 06:06:14;;;;;;;;;;;;;;;15.90;44.70;101883.50;5024255;28;19925;-85
2021/04/21 06:08:39;;;;;;;;;;;;;;;15.45;46.28;101888.50;5027920;28;19917;-85
2021/04/21 06:11:15;;;;;;;;;;;;;;;16.66;43.73;101891.13;5042499;28;20293;-89
2021/04/21 06:13:40;;;;;;;;;;;;;;;16.71;43.66;101888.16;5046286;28;20012;-86
2021/04/21 06:16:07;;;;;;;;;;;;;;;16.53;44.34;101893.69;5045406;28;19983;-91
2021/04/21 06:18:32;;;;;;;;;;;;;;;16.40;45.08;101893.47;5045644;28;19917;-89
2021/04/21 06:20:57;;;;;;;;;;;;;;;16.61;44.62;101896.00;5045715;28;20386;-86
2021/04/21 06:23:24;;;;;;;;;;;;;;;16.91;44.83;101897.97;5062861;28;19928;-87
2021/04/21 06:25:57;;;;;;;;;;;;;;;16.89;44.83;101899.91;5047371;28;19904;-86
2021/04/21 06:28:24;;;;;;;;;;;;;;;16.96;45.50;101904.06;5034322;28;19923;-85
2021/04/21 06:30:52;;;;;;;;;;;;;;;16.72;46.00;101906.31;5045366;28;19924;-87
2021/04/21 06:33:20;;;;;;;;;;;;;;;17.14;45.31;101900.25;5044341;28;19988;-87
2021/04/21 06:35:45;;;;;;;;;;;;;;;17.34;44.92;101909.13;5028410;28;19925;-88
2021/04/21 06:38:11;;;;;;;;;;;;;;;16.70;46.87;101903.66;5044658;28;19921;-88
2021/04/21 06:40:37;;;;;;;;;;;;;;;16.75;46.94;101897.94;5064635;28;19917;-85
2021/04/21 06:43:03;;;;;;;;;;;;;;;16.12;48.94;101910.50;5045328;28;19976;-86
2021/04/21 06:45:30;;;;;;;;;;;;;;;16.70;48.08;101902.75;5044834;28;19952;-87
2021/04/21 06:47:56;;;;;;;;;;;;;;;17.18;47.05;101909.13;5061893;28;20282;-88
2021/04/21 06:50:48;;;;;;;;;;;;;;;17.14;47.53;101907.59;5060850;28;20000;-86
2021/04/21 06:53:13;;;;;;;;;;;;;;;17.45;46.85;101909.41;5041976;28;19937;-86
2021/04/21 06:55:39;;;;;;;;;;;;;;;17.60;46.40;101907.56;5042532;28;19923;-86
2021/04/21 06:58:17;;;;;;;;;;;;;;;18.17;44.96;101912.31;5045804;28;19967;-86
2021/04/21 07:00:44;;;;;;;;;;;;;;;18.21;44.92;101908.41;5061645;28;19967;-87
2021/04/21 07:03:14;;;;;;;;;;;;;;;17.81;46.36;101918.19;5045136;28;19917;-87
2021/04/21 07:05:42;;;;;;;;;;;;;;;18.04;45.06;101906.75;5044646;28;20031;-87
2021/04/21 07:08:09;;;;;;;;;;;;;;;18.42;44.50;101914.41;5063870;28;20342;-88
2021/04/21 07:10:36;;;;;;;;;;;;;;;18.14;45.45;101928.06;5044934;28;20384;-87
2021/04/21 07:13:03;;;;;;;;;;;;;;;17.59;46.52;101914.03;5062196;28;19927;-87
2021/04/21 07:15:30;;;;;;;;;;;;;;;17.81;45.63;101915.44;5045047;28;19917;-88
2021/04/21 07:17:56;;;;;;;;;;;;;;;18.82;44.07;101919.16;5043135;28;19917;-86
2021/04/21 07:20:21;;;;;;;;;;;;;;;17.87;46.12;101926.03;5043563;28;19987;-88
2021/04/21 07:22:47;;;;;;;;;;;;;;;18.78;43.89;101926.72;5044772;28;19924;-88
2021/04/21 07:25:13;;;;;;;;;;;;;;;18.71;43.75;101925.34;5044099;28;19962;-88
2021/04/21 07:27:42;;;;;;;;;;;;;;;18.23;44.70;101936.59;5044541;28;19912;-86
2021/04/21 07:30:09;;;;;;;;;;;;;;;18.69;43.77;101923.66;5050349;28;19935;-88
2021/04/21 07:32:46;;;;;;;;;;;;;;;18.19;43.97;101942.34;5060896;28;19917;-86
2021/04/21 07:35:17;;;;;;;;;;;;;;;18.39;43.98;101933.78;5052368;28;19924;-88
2021/04/21 07:37:43;;;;;;;;;;;;;;;18.38;43.80;101932.00;5068710;28;19995;-87
2021/04/21 07:40:22;;;;;;;;;;;;;;;18.72;43.12;101948.13;5052216;28;19980;-86
2021/04/21 07:42:47;;;;;;;;;;;;;;;18.61;43.90;101940.59;5046071;28;19925;-86
2021/04/21 07:45:13;;;;;;;;;;;;;;;19.27;43.38;101947.28;5043778;28;19943;-85
2021/04/21 07:47:39;;;;;;;;;;;;;;;18.56;44.48;101951.88;5043217;28;20008;-85
2021/04/21 07:50:05;;;;;;;;;;;;;;;19.00;43.82;101950.00;5040912;28;19932;-86
2021/04/21 07:52:35;;;;;;;;;;;;;;;18.67;44.89;101953.91;5044248;28;19920;-86
2021/04/21 07:55:04;;;;;;;;;;;;;;;19.15;43.00;101949.97;5041003;28;19955;-85
2021/04/21 07:57:30;;;;;;;;;;;;;;;18.91;44.14;101959.72;5042299;28;19952;-86
2021/04/21 07:59:55;;;;;;;;;;;;;;;19.44;42.91;101954.38;5043435;28;20370;-87
2021/04/21 08:02:21;;;;;;;;;;;;;;;19.50;43.00;101952.22;5049208;28;19927;-86
2021/04/21 08:04:50;;;;;;;;;;;;;;;19.39;43.19;101967.53;5048881;28;19995;-86
2021/04/21 08:07:25;;;;;;;;;;;;;;;19.39;43.34;101973.03;5048053;28;19947;-86
2021/04/21 08:09:51;;;;;;;;;;;;;;;19.85;41.46;101971.78;5047036;28;19917;-86
2021/04/21 08:12:16;;;;;;;;;;;;;;;20.05;40.44;101969.53;5065404;28;19974;-88
2021/04/21 08:14:49;;;;;;;;;;;;;;;20.10;39.67;101978.34;5048232;28;19917;-87
2021/04/21 08:17:15;;;;;;;;;;;;;;;19.51;41.09;101975.94;5047694;28;19917;-85
2021/04/21 08:19:42;;;;;;;;;;;;;;;20.32;39.01;101978.59;5027608;28;20007;-85
2021/04/21 08:22:08;;;;;;;;;;;;;;;19.67;40.02;101984.88;5027683;28;19975;-85
2021/04/21 08:24:38;;;;;;;;;;;;;;;19.46;40.72;101985.38;5046135;28;19921;-85
2021/04/21 08:27:04;;;;;;;;;;;;;;;19.91;39.47;101989.72;5028441;28;20007;-87
2021/04/21 08:29:30;;;;;;;;;;;;;;;20.24;39.60;101988.34;5047311;28;19905;-86
2021/04/21 08:31:55;;;;;;;;;;;;;;;20.38;39.31;101988.25;5027212;28;19929;-84
2021/04/21 08:34:21;;;;;;;;;;;;;;;20.10;39.26;101990.19;5047009;28;19917;-87
2021/04/21 08:36:47;;;;;;;;;;;;;;;21.20;37.38;101997.00;5021940;28;19932;-86
2021/04/21 08:39:12;;;;;;;;;;;;;;;20.43;38.47;101997.06;5021858;28;19917;-86
2021/04/21 08:41:39;;;;;;;;;;;;;;;19.93;39.49;102004.22;5021094;28;20024;-86
2021/04/21 08:44:05;;;;;;;;;;;;;;;20.76;37.77;102000.25;5038846;28;19956;-87
2021/04/21 08:46:30;;;;;;;;;;;;;;;20.05;39.46;102007.97;5021132;28;20010;-86
2021/04/21 08:48:57;;;;;;;;;;;;;;;20.81;37.32;102000.81;5044048;28;19922;-83
2021/04/21 08:51:23;;;;;;;;;;;;;;;20.49;38.68;102006.75;5020694;28;20371;-86
2021/04/21 08:53:50;;;;;;;;;;;;;;;20.10;38.82;102003.94;5023106;28;19917;-85
2021/04/21 08:56:17;;;;;;;;;;;;;;;20.69;37.74;101999.84;5039677;28;19928;-85
2021/04/21 08:58:43;;;;;;;;;;;;;;;20.50;37.47;102017.63;5021376;28;19917;-86
2021/04/21 09:01:10;;;;;;;;;;;;;;;20.84;36.67;102015.22;5038815;28;19918;-85
2021/04/21 09:03:36;;;;;;;;;;;;;;;20.73;37.07;102015.13;5038440;28;20000;-86
2021/04/21 09:06:02;;;;;;;;;;;;;;;19.93;38.89;102016.09;5020194;28;20636;-86
2021/04/21 09:08:27;;;;;;;;;;;;;;;19.74;39.19;102029.28;5019285;28;19960;-86
2021/04/21 09:10:52;;;;;;;;;;;;;;;20.05;39.07;102025.38;5038193;28;19921;-86
2021/04/21 09:13:18;;;;;;;;;;;;;;;19.56;40.45;102034.16;5020653;28;19921;-87
2021/04/21 09:15:44;;;;;;;;;;;;;;;18.94;41.45;102040.91;5020721;28;20297;-86
2021/04/21 09:18:10;;;;;;;;;;;;;;;18.89;41.37;102045.81;5022246;28;19956;-88
2021/04/21 09:20:42;;;;;;;;;;;;;;;19.19;40.72;102042.06;5024109;28;19917;-87
2021/04/21 09:23:14;;;;;;;;;;;;;;;19.30;41.04;102045.00;5024023;28;19917;-87
2021/04/21 09:25:49;;;;;;;;;;;;;;;19.45;40.25;102049.47;5023389;28;19921;-87
2021/04/21 09:28:18;;;;;;;;;;;;;;;20.26;38.70;102049.56;5029346;28;19916;-86
2021/04/21 09:30:50;;;;;;;;;;;;;;;19.65;39.95;102050.00;5042492;28;19963;-87
2021/04/21 09:33:16;;;;;;;;;;;;;;;20.19;39.02;102049.13;5045988;28;19995;-86
2021/04/21 09:35:42;;;;;;;;;;;;;;;19.81;39.85;102045.28;5063259;28;19920;-87
2021/04/21 09:38:12;;;;;;;;;;;;;;;20.13;39.74;102047.69;5044935;28;19921;-88
2021/04/21 09:40:53;;;;;;;;;;;;;;;20.33;39.15;102050.91;5046683;28;19949;-85
2021/04/21 09:43:20;;;;;;;;;;;;;;;20.35;38.87;102044.31;5044796;28;20240;-90
2021/04/21 09:45:46;;;;;;;;;;;;;;;20.09;39.88;102053.50;5044404;28;19926;-86
2021/04/21 09:48:24;;;;;;;;;;;;;;;19.77;40.24;102059.28;5046910;28;19901;-90
2021/04/21 09:51:09;;;;;;;;;;;;;;;20.01;39.79;102054.03;5048353;28;19980;-91
2021/04/21 09:53:36;;;;;;;;;;;;;;;19.69;40.10;102059.81;5049014;28;19924;-86
2021/04/21 09:56:10;;;;;;;;;;;;;;;21.17;37.09;102051.41;5083932;28;19927;-91
2021/04/21 09:58:45;;;;;;;;;;;;;;;20.13;39.65;102044.06;5070298;28;20011;-92
2021/04/21 10:01:21;;;;;;;;;;;;;;;20.33;38.95;102054.53;5068362;28;19952;-91
2021/04/21 10:04:03;;;;;;;;;;;;;;;20.50;38.55;102053.38;5047342;28;19928;-85
2021/04/21 10:06:30;;;;;;;;;;;;;;;20.05;39.60;102055.59;5060189;28;19970;-87
2021/04/21 10:08:55;;;;;;;;;;;;;;;20.84;37.67;102059.22;5047483;28;19917;-88
2021/04/21 10:11:21;;;;;;;;;;;;;;;21.72;36.24;102057.44;5041147;28;19939;-87
2021/04/21 10:13:48;;;;;;;;;;;;;;;20.23;38.90;102058.03;5041239;28;19917;-87
2021/04/21 10:16:14;;;;;;;;;;;;;;;21.02;38.00;102058.91;5040919;28;20286;-87
2021/04/21 10:18:42;;;;;;;;;;;;;;;21.08;37.30;102047.44;5041411;28;19921;-87
2021/04/21 10:21:07;;;;;;;;;;;;;;;21.45;36.99;102050.22;5041043;28;19924;-86
2021/04/21 10:23:33;;;;;;;;;;;;;;;20.85;37.55;102058.25;5041712;28;19917;-86
2021/04/21 10:26:05;;;;;;;;;;;;;;;21.38;36.58;102065.44;5040724;28;19935;-87
2021/04/21 10:28:31;;;;;;;;;;;;;;;20.75;37.38;102067.28;5039729;28;20319;-87
2021/04/21 10:30:56;;;;;;;;;;;;;;;20.80;37.87;102062.31;5059319;28;19921;-86
2021/04/21 10:33:23;;;;;;;;;;;;;;;20.69;37.70;102069.47;5040961;28;19917;-87
2021/04/21 10:35:49;;;;;;;;;;;;;;;19.80;39.45;102075.59;5035146;28;19932;-86
2021/04/21 10:38:21;;;;;;;;;;;;;;;20.10;38.62;102067.13;5037736;28;19920;-87
2021/04/21 10:40:46;;;;;;;;;;;;;;;20.77;37.15;102071.66;5041259;28;19924;-88
2021/04/21 10:43:14;;;;;;;;;;;;;;;20.58;37.11;102069.31;5058678;28;19917;-88
2021/04/21 10:45:49;;;;;;;;;;;;;;;20.38;36.83;102081.69;5059800;28;19916;-86
2021/04/21 10:48:34;;;;;;;;;;;;;;;20.47;37.19;102085.66;5041307;28;20010;-87
2021/04/21 10:51:02;;;;;;;;;;;;;;;20.20;37.27;102086.63;5023692;28;19917;-88
2021/04/21 10:53:30;;;;;;;;;;;;;;;20.34;36.80;102091.16;5059086;28;19917;-88
2021/04/21 10:55:55;;;;;;;;;;;;;;;20.70;36.27;102084.97;5044490;28;19944;-88
2021/04/21 10:58:20;;;;;;;;;;;;;;;20.37;36.44;102090.94;5062291;28;19917;-88
2021/04/21 11:00:47;;;;;;;;;;;;;;;20.67;35.94;102087.94;5062160;28;20370;-87
2021/04/21 11:03:15;;;;;;;;;;;;;;;20.00;36.35;102094.34;5063537;28;19917;-88
2021/04/21 11:05:44;;;;;;;;;;;;;;;20.68;35.66;102089.72;5062702;28;19925;-86
2021/04/21 11:08:20;;;;;;;;;;;;;;;21.29;35.16;102099.13;5061849;28;19924;-85
2021/04/21 11:10:46;;;;;;;;;;;;;;;21.73;33.95;102100.53;5062210;28;19924;-87
2021/04/21 11:13:16;;;;;;;;;;;;;;;20.58;35.47;102099.56;5043674;28;20039;-87
2021/04/21 11:15:42;;;;;;;;;;;;;;;21.82;32.93;102099.81;5042893;28;19948;-87
2021/04/21 11:18:08;;;;;;;;;;;;;;;21.29;33.69;102100.03;5043615;28;19932;-87
2021/04/21 11:20:51;;;;;;;;;;;;;;;21.33;33.62;102092.41;5044150;28;19976;-86
2021/04/21 11:23:36;;;;;;;;;;;;;;;20.95;34.04;102091.47;5046405;28;20003;-87
2021/04/21 11:26:20;;;;;;;;;;;;;;;21.65;32.76;102089.19;5046265;28;19924;-84
2021/04/21 11:28:55;;;;;;;;;;;;;;;21.76;32.50;102097.53;5023180;28;19917;-87
2021/04/21 11:31:22;;;;;;;;;;;;;;;21.55;32.48;102087.13;5023398;28;19928;-86
2021/04/21 11:33:51;;;;;;;;;;;;;;;21.98;32.47;102096.75;5024133;28;20023;-87
2021/04/21 11:36:35;;;;;;;;;;;;;;;21.34;32.82;102094.19;5039955;28;20624;-85
2021/04/21 11:39:00;;;;;;;;;;;;;;;21.58;32.42;102094.28;5023299;28;19921;-83
2021/04/21 11:41:37;;;;;;;;;;;;;;;21.97;32.52;102094.13;5038997;28;19917;-85
2021/04/21 11:44:03;;;;;;;;;;;;;;;21.62;33.67;102104.09;5046806;28;20258;-85
2021/04/21 11:46:47;;;;;;;;;;;;;;;21.91;32.45;102089.97;5042879;28;19923;-86
2021/04/21 11:49:36;;;;;;;;;;;;;;;21.83;32.16;102096.06;5043418;28;19917;-85
2021/04/21 11:52:01;;;;;;;;;;;;;;;23.06;30.62;102093.00;5010666;28;20036;-86
2021/04/21 11:54:27;;;;;;;;;;;;;;;22.14;31.52;102082.69;5052259;28;20414;-85
2021/04/21 11:56:57;;;;;;;;;;;;;;;22.28;30.53;102090.78;5065616;28;19939;-86
2021/04/21 11:59:24;;;;;;;;;;;;;;;21.76;31.51;102087.38;5043967;28;19938;-86
2021/04/21 12:01:49;;;;;;;;;;;;;;;22.89;29.42;102078.69;5043883;28;19949;-85
2021/04/21 12:04:18;;;;;;;;;;;;;;;23.25;29.03;102082.25;5041497;28;19917;-85
2021/04/21 12:06:44;;;;;;;;;;;;;;;22.19;30.31;102076.81;5042042;28;19955;-89
2021/04/21 12:09:11;;;;;;;;;;;;;;;21.06;31.34;102076.94;5046038;28;20386;-88
2021/04/21 12:11:37;;;;;;;;;;;;;;;22.44;29.97;102075.84;5043856;28;20366;-87
2021/04/21 12:14:03;;;;;;;;;;;;;;;21.82;30.74;102072.28;5029746;28;19925;-89
2021/04/21 12:16:32;;;;;;;;;;;;;;;21.87;30.36;102081.06;5044547;28;19913;-87
2021/04/21 12:18:58;;;;;;;;;;;;;;;21.53;30.84;102079.94;5044690;28;19924;-89
2021/04/21 12:21:26;;;;;;;;;;;;;;;21.08;31.96;102080.47;5061233;28;20319;-85
2021/04/21 12:23:54;;;;;;;;;;;;;;;21.99;30.56;102070.97;5041023;28;19960;-87
2021/04/21 12:26:27;;;;;;;;;;;;;;;22.48;29.64;102077.34;5042057;28;20389;-87
2021/04/21 12:28:57;;;;;;;;;;;;;;;22.90;29.48;102077.66;5043426;28;20286;-88
2021/04/21 12:31:27;;;;;;;;;;;;;;;23.54;28.21;102078.97;5043703;28;20007;-86
2021/04/21 12:33:54;;;;;;;;;;;;;;;22.65;27.76;102078.78;5043527;28;19970;-87
2021/04/21 12:36:24;;;;;;;;;;;;;;;23.55;27.42;102077.94;5045097;28;19927;-88
2021/04/21 12:39:06;;;;;;;;;;;;;;;22.61;28.89;102086.38;5043783;28;19988;-85
2021/04/21 12:41:32;;;;;;;;;;;;;;;21.92;29.59;102075.19;5045284;28;19921;-83
2021/04/21 12:44:16;;;;;;;;;;;;;;;22.56;28.85;102080.38;5041826;28;19917;-84
2021/04/21 12:46:42;;;;;;;;;;;;;;;22.99;31.29;102079.72;5043444;28;19988;-89
2021/04/21 12:49:08;;;;;;;;;;;;;;;22.90;29.18;102083.19;5045240;28;19929;-88
2021/04/21 12:51:33;;;;;;;;;;;;;;;22.50;29.87;102086.38;5044061;28;19968;-82